KSYN/SYN METAR and TAF weather

Enter ICAO airport designator
Station Type Date Time Source
KSYN METAR 2019/06/27 10:16 UTC NOAA

KSYN 271016Z AUTO 00000KT 10SM CLR 17/15 A3007 RMK AO2 T01730154


Station Type Date Time Source
KSYN Decoded METAR 2019/06/27 10:16 UTC NOAA

Stanton, Stanton Airfield, MN, United States (KSYN) 44-28-31N 093-00-58W
Jun 27, 2019 - 06:16 AM EDT / 2019.06.27 1016 UTC
Wind: Calm:0
Visibility: 10 mile(s):0
Sky conditions: clear
Temperature: 63.1 F (17.3 C)
Dew Point: 59.7 F (15.4 C)
Relative Humidity: 88%
Pressure (altimeter): 30.07 in. Hg (1018 hPa)
ob: KSYN 271016Z AUTO 00000KT 10SM CLR 17/15 A3007 RMK AO2 T01730154
cycle: 10

Station Type Date Time Source
KSYN TAF UTC NOAA

Error!

Example: see airport list